Time;durP1;ratioP1;P1;durP2;ratioP2;P2;SDS_P1;SDS_P2;PMS_P1;PMS_P2;Temp;Humidity;BMP_temperature;BMP_pressure;BME280_temperature;BME280_humidity;BME280_pressure;Samples;Min_cycle;Max_cycle;Signal;HPM_P1;HPM_P2
2022/04/27 00:00:36;;;;;;;10.10;6.75;;;;;;;8.23;65.26;102271.75;4988669;28;20371;-87
2022/04/27 00:03:05;;;;;;;10.57;6.95;;;;;;;8.25;65.43;102288.41;4971957;28;20088;-86
2022/04/27 00:05:32;;;;;;;9.40;7.25;;;;;;;8.17;64.73;102277.94;4966929;28;20389;-86
2022/04/27 00:07:57;;;;;;;12.73;7.63;;;;;;;8.03;65.72;102259.59;4992298;28;20481;-87
2022/04/27 00:10:23;;;;;;;12.43;7.05;;;;;;;8.06;65.66;102285.03;4974289;28;20026;-86
2022/04/27 00:12:49;;;;;;;10.57;7.15;;;;;;;8.00;63.64;102270.16;4973001;28;20493;-86
2022/04/27 00:15:15;;;;;;;15.32;7.65;;;;;;;8.00;64.05;102278.06;4986860;28;20080;-86
2022/04/27 00:17:41;;;;;;;11.27;7.03;;;;;;;7.91;63.19;102257.03;4990286;28;20034;-86
2022/04/27 00:20:07;;;;;;;9.13;6.63;;;;;;;7.96;62.96;102254.38;4992461;28;20061;-87
2022/04/27 00:22:34;;;;;;;9.90;6.95;;;;;;;8.05;65.29;102267.50;4973601;28;20067;-87
2022/04/27 00:25:04;;;;;;;8.63;6.68;;;;;;;7.91;63.56;102255.28;4983078;28;20393;-86
2022/04/27 00:27:30;;;;;;;13.63;7.55;;;;;;;7.90;65.32;102264.06;4990464;28;20412;-87
2022/04/27 00:29:57;;;;;;;10.43;7.47;;;;;;;7.78;63.70;102264.13;4989902;28;20172;-87
2022/04/27 00:32:22;;;;;;;11.30;7.22;;;;;;;7.77;64.59;102261.53;4988447;28;20146;-86
2022/04/27 00:34:48;;;;;;;11.68;7.50;;;;;;;7.76;63.68;102265.03;4972690;28;20037;-87
2022/04/27 00:37:14;;;;;;;10.75;7.75;;;;;;;7.79;64.09;102275.56;4971597;28;20529;-86
2022/04/27 00:39:39;;;;;;;11.80;7.30;;;;;;;7.71;64.64;102265.06;4989182;28;20033;-88
2022/04/27 00:42:16;;;;;;;10.70;7.43;;;;;;;7.74;63.77;102275.59;4987161;28;20057;-86
2022/04/27 00:44:44;;;;;;;12.23;6.57;;;;;;;7.70;64.25;102272.97;4971103;28;20374;-86
2022/04/27 00:47:10;;;;;;;9.85;6.90;;;;;;;7.64;64.28;102279.13;4987618;28;20033;-87
2022/04/27 00:49:36;;;;;;;9.45;6.60;;;;;;;7.60;63.87;102273.03;4971915;28;20034;-86
2022/04/27 00:52:02;;;;;;;9.38;7.03;;;;;;;7.53;64.15;102259.91;4990069;28;20029;-86
2022/04/27 00:54:28;;;;;;;11.43;6.85;;;;;;;7.60;65.38;102280.94;4990681;28;20370;-86
2022/04/27 00:56:54;;;;;;;11.18;7.72;;;;;;;7.46;68.30;102277.47;4987801;28;20054;-86
2022/04/27 00:59:19;;;;;;;10.20;7.25;;;;;;;7.39;65.03;102278.38;4974862;28;20140;-87
2022/04/27 01:01:45;;;;;;;9.52;6.97;;;;;;;7.24;64.96;102266.16;4988817;28;20029;-86
2022/04/27 01:04:10;;;;;;;11.70;7.32;;;;;;;7.25;65.45;102282.81;4990776;28;20030;-86
2022/04/27 01:06:38;;;;;;;9.80;6.95;;;;;;;7.18;65.36;102276.72;4990057;28;20026;-87
2022/04/27 01:09:04;;;;;;;13.52;6.75;;;;;;;7.12;65.74;102274.06;4978612;28;20053;-86
2022/04/27 01:11:33;;;;;;;11.02;7.75;;;;;;;7.13;64.96;102276.72;4980612;28;20113;-86
2022/04/27 01:13:58;;;;;;;11.40;7.10;;;;;;;7.16;65.18;102286.34;4975426;28;20030;-87
2022/04/27 01:16:25;;;;;;;14.00;7.75;;;;;;;7.06;65.01;102274.97;4991505;28;20444;-87
2022/04/27 01:18:51;;;;;;;11.27;7.88;;;;;;;6.97;65.03;102267.09;4990334;28;20080;-87
2022/04/27 01:21:17;;;;;;;11.70;7.82;;;;;;;7.14;65.07;102288.97;4994610;28;20422;-88
2022/04/27 01:23:42;;;;;;;13.48;8.00;;;;;;;6.88;67.76;102269.75;4998187;28;20156;-86
2022/04/27 01:26:08;;;;;;;12.27;7.07;;;;;;;6.82;66.03;102285.53;4979582;28;20065;-86
2022/04/27 01:28:36;;;;;;;11.43;8.05;;;;;;;6.88;66.43;102296.03;4972778;28;20053;-87
2022/04/27 01:31:07;;;;;;;9.13;7.55;;;;;;;6.88;66.59;102302.16;4993970;28;20531;-86
2022/04/27 01:33:34;;;;;;;11.52;7.97;;;;;;;6.74;67.83;102300.44;4990919;28;20505;-87
2022/04/27 01:36:04;;;;;;;9.57;7.72;;;;;;;6.73;66.86;102311.84;4992027;28;20040;-87
2022/04/27 01:38:41;;;;;;;12.45;6.90;;;;;;;6.73;67.72;102299.56;4991990;28;20094;-88
2022/04/27 01:41:07;;;;;;;8.15;6.72;;;;;;;6.64;66.58;102308.34;4974238;28;20140;-86
2022/04/27 01:43:33;;;;;;;8.30;6.80;;;;;;;6.53;66.85;102298.72;4975390;28;20120;-87
2022/04/27 01:45:59;;;;;;;10.45;6.57;;;;;;;6.58;67.35;102305.72;4988325;28;20528;-86
2022/04/27 01:48:26;;;;;;;9.70;7.43;;;;;;;6.56;66.63;102299.56;4993809;28;20409;-86
2022/04/27 01:50:52;;;;;;;13.02;7.25;;;;;;;6.58;69.76;102294.34;4982021;28;20487;-87
2022/04/27 01:56:01;;;;;;;10.65;7.88;;;;;;;6.63;67.00;102309.22;4994909;28;20543;-86
2022/04/27 01:58:26;;;;;;;12.43;8.40;;;;;;;6.61;68.92;102307.44;4994547;28;20050;-87
2022/04/27 02:00:52;;;;;;;10.23;7.70;;;;;;;6.56;66.32;102310.06;4989441;28;20025;-86
2022/04/27 02:03:19;;;;;;;13.00;8.23;;;;;;;6.32;68.16;102294.31;4994287;28;20077;-86
2022/04/27 02:05:45;;;;;;;12.30;8.48;;;;;;;6.41;67.37;102314.47;4974292;28;20041;-87
2022/04/27 02:08:11;;;;;;;12.23;8.32;;;;;;;6.44;66.96;102310.09;4989408;28;20026;-87
2022/04/27 02:10:37;;;;;;;13.38;9.15;;;;;;;6.28;66.67;102284.69;4993055;28;20030;-86
2022/04/27 02:13:04;;;;;;;12.25;8.98;;;;;;;6.42;70.63;102303.94;4976463;28;20045;-86
2022/04/27 02:15:30;;;;;;;14.10;9.00;;;;;;;6.24;68.08;102289.03;4991184;28;20525;-86
2022/04/27 02:17:56;;;;;;;13.60;8.68;;;;;;;6.41;70.17;102317.97;4992890;28;20113;-86
2022/04/27 02:20:23;;;;;;;13.18;8.70;;;;;;;6.32;69.40;102308.31;4976201;28;20025;-86
2022/04/27 02:22:50;;;;;;;13.52;9.27;;;;;;;6.20;69.27;102304.78;4976821;28;20343;-86
2022/04/27 02:25:15;;;;;;;14.07;9.70;;;;;;;6.28;71.16;102326.69;4991334;28;20838;-87
2022/04/27 02:27:41;;;;;;;13.88;9.25;;;;;;;6.18;70.36;102312.69;4974491;28;20049;-86
2022/04/27 02:30:08;;;;;;;13.73;8.70;;;;;;;6.20;70.41;102331.06;4990782;28;20032;-87
2022/04/27 02:32:34;;;;;;;11.75;8.80;;;;;;;6.11;70.33;102313.56;4991928;28;20041;-86
2022/04/27 02:34:59;;;;;;;14.60;8.07;;;;;;;6.08;69.03;102314.41;4976374;28;20034;-87
2022/04/27 02:37:25;;;;;;;11.05;7.35;;;;;;;6.15;72.59;102328.41;4977435;28;20382;-86
2022/04/27 02:39:50;;;;;;;9.05;6.43;;;;;;;6.00;69.92;102318.75;4972453;28;20437;-87
2022/04/27 02:42:17;;;;;;;8.93;6.75;;;;;;;5.96;70.70;102327.50;4990544;28;20097;-87
2022/04/27 02:44:43;;;;;;;11.40;8.02;;;;;;;5.92;71.12;102330.97;4988966;28;20023;-86
2022/04/27 02:47:08;;;;;;;13.88;8.90;;;;;;;5.95;68.79;102325.75;4974281;28;20041;-87
2022/04/27 02:52:17;;;;;;;16.60;9.35;;;;;;;5.92;69.21;102325.72;4992613;28;20544;-86
2022/04/27 02:54:43;;;;;;;15.18;10.27;;;;;;;5.93;69.08;102324.00;4977277;28;20056;-86
2022/04/27 02:57:08;;;;;;;14.30;10.20;;;;;;;5.97;69.14;102336.25;4991556;28;20059;-87
2022/04/27 02:59:34;;;;;;;15.13;9.55;;;;;;;5.95;68.96;102338.88;4971849;28;20101;-86
2022/04/27 03:02:00;;;;;;;16.73;9.80;;;;;;;5.93;69.27;102322.25;4988062;28;20041;-87
2022/04/27 03:04:25;;;;;;;15.85;9.90;;;;;;;5.97;68.67;102328.38;4992631;28;20493;-86
2022/04/27 03:06:51;;;;;;;12.73;9.00;;;;;;;5.91;68.95;102333.56;4993017;28;20054;-87
2022/04/27 03:09:16;;;;;;;15.00;9.57;;;;;;;5.90;68.21;102340.59;4978074;28;20469;-86
2022/04/27 03:11:42;;;;;;;13.02;9.48;;;;;;;5.76;69.32;102337.03;4977279;28;20045;-86
2022/04/27 03:14:07;;;;;;;16.80;10.20;;;;;;;5.57;69.72;102334.34;4988335;28;20073;-86
2022/04/27 03:16:32;;;;;;;14.88;9.23;;;;;;;5.60;69.57;102336.97;4973960;28;20501;-86
2022/04/27 03:19:01;;;;;;;13.70;9.18;;;;;;;5.67;69.30;102347.50;4975608;28;20100;-87
2022/04/27 03:21:29;;;;;;;14.25;9.10;;;;;;;5.51;69.69;102334.31;4994204;28;20030;-86
2022/04/27 03:23:55;;;;;;;18.92;9.70;;;;;;;5.52;69.46;102338.69;4990473;28;20455;-86
2022/04/27 03:26:21;;;;;;;13.43;9.20;;;;;;;5.55;68.75;102333.47;4992725;28;20112;-86
2022/04/27 03:28:46;;;;;;;13.73;9.68;;;;;;;5.53;69.63;102327.31;4990245;28;20113;-87
2022/04/27 03:31:12;;;;;;;15.27;9.82;;;;;;;5.59;68.80;102332.56;4989939;28;20048;-86
2022/04/27 03:33:37;;;;;;;17.13;10.52;;;;;;;5.55;69.35;102343.94;4990196;28;20155;-86
2022/04/27 03:36:02;;;;;;;14.00;9.82;;;;;;;5.52;69.28;102346.56;4991082;28;20532;-87
2022/04/27 03:38:28;;;;;;;18.05;9.32;;;;;;;5.50;69.44;102342.16;4978434;28;20436;-88
2022/04/27 03:40:53;;;;;;;15.27;9.80;;;;;;;5.50;68.78;102355.28;4970653;28;20037;-86
2022/04/27 03:43:19;;;;;;;13.48;9.43;;;;;;;5.44;68.98;102350.88;4989824;28;20401;-87
2022/04/27 03:45:44;;;;;;;15.85;9.52;;;;;;;5.32;69.86;102345.59;4985368;28;20026;-86
2022/04/27 03:48:10;;;;;;;16.23;9.82;;;;;;;5.37;69.07;102364.84;4971404;28;20473;-87
2022/04/27 03:50:35;;;;;;;16.92;9.35;;;;;;;5.32;70.89;102356.06;4973636;28;20034;-87
2022/04/27 03:53:01;;;;;;;13.60;9.18;;;;;;;5.18;69.79;102349.88;4986424;28;20037;-86
2022/04/27 03:55:28;;;;;;;14.90;9.90;;;;;;;5.10;71.10;102357.66;4976004;28;20050;-86
2022/04/27 03:57:54;;;;;;;18.08;10.10;;;;;;;5.12;70.22;102364.66;4989375;28;20034;-87
2022/04/27 04:00:19;;;;;;;16.80;10.38;;;;;;;5.16;70.11;102372.56;4973692;28;20424;-88
2022/04/27 04:02:45;;;;;;;17.50;10.40;;;;;;;5.12;72.04;102374.28;4970904;28;20018;-86
2022/04/27 04:05:10;;;;;;;18.15;10.13;;;;;;;5.00;69.61;102359.34;4972921;28;20026;-87
2022/04/27 04:07:35;;;;;;;15.23;9.93;;;;;;;5.15;69.73;102379.56;4986606;28;20068;-86
2022/04/27 04:10:02;;;;;;;16.77;10.45;;;;;;;5.17;69.64;102383.03;4971545;28;20029;-86
2022/04/27 04:12:28;;;;;;;16.00;9.63;;;;;;;5.19;73.94;102377.84;4975170;28;20057;-87
2022/04/27 04:14:53;;;;;;;14.77;9.80;;;;;;;5.15;72.97;102376.06;4975151;28;20418;-86
2022/04/27 04:17:19;;;;;;;13.63;9.23;;;;;;;5.06;73.54;102382.97;4990128;28;20038;-86
2022/04/27 04:19:44;;;;;;;11.05;8.18;;;;;;;4.87;70.28;102362.75;4972154;28;20042;-86
2022/04/27 04:22:10;;;;;;;9.18;7.40;;;;;;;4.99;70.24;102380.28;4976163;28;20033;-87
2022/04/27 04:24:36;;;;;;;10.25;7.35;;;;;;;4.97;70.40;102377.66;4991648;28;20034;-86
2022/04/27 04:29:45;;;;;;;12.82;9.13;;;;;;;4.92;69.78;102387.25;4990706;28;20045;-86
2022/04/27 04:32:11;;;;;;;12.65;9.30;;;;;;;4.83;70.22;102369.69;4974038;28;20033;-86
2022/04/27 04:34:36;;;;;;;15.68;9.52;;;;;;;4.81;70.26;102379.31;4968808;28;20030;-86
2022/04/27 04:37:02;;;;;;;14.20;9.68;;;;;;;4.75;70.56;102401.94;4989357;28;20496;-86
2022/04/27 04:39:27;;;;;;;20.30;10.40;;;;;;;4.70;70.38;102401.00;4972403;28;20056;-86
2022/04/27 04:41:53;;;;;;;14.68;10.43;;;;;;;4.77;70.36;102410.69;4977932;28;20116;-86
2022/04/27 04:44:18;;;;;;;18.67;10.80;;;;;;;4.70;70.15;102408.88;4995812;28;20482;-86
2022/04/27 04:46:44;;;;;;;12.38;8.85;;;;;;;4.62;69.59;102393.09;4968404;28;20194;-86
2022/04/27 04:49:09;;;;;;;14.70;9.40;;;;;;;4.77;69.88;102415.94;4990098;28;20030;-87
2022/04/27 04:51:35;;;;;;;18.67;10.35;;;;;;;4.80;69.94;102403.75;4976663;28;20026;-85
2022/04/27 04:54:00;;;;;;;23.88;10.00;;;;;;;5.00;70.60;102431.88;4994150;28;20041;-85
2022/04/27 04:56:26;;;;;;;14.52;9.60;;;;;;;4.88;69.76;102395.06;4974596;28;20562;-88
2022/04/27 04:58:51;;;;;;;14.43;9.55;;;;;;;5.09;69.36;102418.84;4987851;28;20092;-86
2022/04/27 05:01:17;;;;;;;14.82;9.05;;;;;;;5.21;71.25;102415.41;4988331;28;20042;-86
2022/04/27 05:03:42;;;;;;;14.02;8.95;;;;;;;5.25;69.88;102420.69;4974133;28;20064;-86
2022/04/27 05:06:07;;;;;;;13.32;9.15;;;;;;;5.34;69.52;102435.63;4970900;28;20449;-87
2022/04/27 05:08:32;;;;;;;12.25;8.48;;;;;;;5.26;70.24;102426.81;4986786;28;20034;-87
2022/04/27 05:10:58;;;;;;;11.70;8.25;;;;;;;5.22;68.96;102411.91;4991815;28;20465;-87
2022/04/27 05:13:24;;;;;;;11.18;8.00;;;;;;;5.38;69.55;102422.53;4990680;28;20022;-87
2022/04/27 05:15:49;;;;;;;11.10;7.88;;;;;;;5.46;70.13;102435.72;4991285;28;20112;-88
2022/04/27 05:18:17;;;;;;;13.30;8.75;;;;;;;5.35;70.21;102408.53;4985419;28;20026;-86
2022/04/27 05:20:43;;;;;;;16.58;9.80;;;;;;;5.46;71.98;102427.84;4988993;28;20423;-87
2022/04/27 05:23:08;;;;;;;14.43;9.65;;;;;;;5.48;70.83;102433.97;4994482;28;20100;-87
2022/04/27 05:25:34;;;;;;;13.57;9.15;;;;;;;5.62;70.54;102436.69;4975638;28;20025;-87
2022/04/27 05:28:02;;;;;;;15.35;9.13;;;;;;;5.67;70.86;102442.81;4991149;28;20129;-87
2022/04/27 05:33:12;;;;;;;14.13;9.50;;;;;;;5.69;71.60;102443.72;4990451;28;20819;-87
2022/04/27 05:35:41;;;;;;;15.70;10.30;;;;;;;5.77;72.27;102449.88;4987822;28;20022;-87
2022/04/27 05:38:07;;;;;;;17.42;11.43;;;;;;;5.88;71.46;102465.69;4989052;28;20033;-87
2022/04/27 05:40:32;;;;;;;17.45;11.25;;;;;;;5.77;72.37;102442.00;4991944;28;20030;-88
2022/04/27 05:42:57;;;;;;;19.52;11.45;;;;;;;5.91;72.40;102449.06;4989923;28;20038;-87
2022/04/27 05:45:23;;;;;;;18.55;11.30;;;;;;;6.05;72.57;102452.66;4974109;28;21832;-88
2022/04/27 05:47:49;;;;;;;20.52;11.90;;;;;;;6.11;72.01;102455.34;4989392;28;20558;-87
2022/04/27 05:50:14;;;;;;;18.35;11.60;;;;;;;6.12;72.38;102451.84;4988229;28;20034;-87
2022/04/27 05:52:52;;;;;;;21.60;11.75;;;;;;;6.24;71.97;102457.13;4991391;28;20030;-87
2022/04/27 05:55:19;;;;;;;26.55;12.57;;;;;;;6.39;72.43;102472.97;4992957;28;20052;-87
2022/04/27 05:57:44;;;;;;;16.80;11.05;;;;;;;6.30;73.29;102444.03;4993342;28;20124;-88
2022/04/27 06:00:10;;;;;;;18.17;12.30;;;;;;;6.44;73.22;102467.72;4968324;28;20500;-87
2022/04/27 06:02:36;;;;;;;18.85;11.50;;;;;;;6.59;73.35;102467.75;4987027;28;20033;-89
2022/04/27 06:05:01;;;;;;;21.95;11.98;;;;;;;6.57;73.87;102452.84;4969447;28;20367;-87
2022/04/27 06:07:26;;;;;;;16.48;10.68;;;;;;;6.75;72.31;102466.03;4978608;28;20037;-88
2022/04/27 06:09:52;;;;;;;19.20;10.98;;;;;;;6.73;72.41;102454.66;4973265;28;21049;-86
2022/04/27 06:12:18;;;;;;;19.88;11.05;;;;;;;6.95;72.55;102471.31;4996269;28;20030;-88
2022/04/27 06:14:44;;;;;;;20.95;11.95;;;;;;;7.04;72.62;102481.84;4970906;28;20497;-87
2022/04/27 06:17:09;;;;;;;22.45;12.73;;;;;;;7.16;72.72;102487.09;4987246;28;20062;-87
2022/04/27 06:19:34;;;;;;;22.00;12.35;;;;;;;7.16;71.92;102475.72;4971783;28;20038;-86
2022/04/27 06:22:00;;;;;;;16.83;12.02;;;;;;;7.25;71.56;102485.34;4974816;28;20198;-87
2022/04/27 06:24:27;;;;;;;22.48;11.77;;;;;;;7.36;71.74;102488.84;4978004;28;20014;-87
2022/04/27 06:26:54;;;;;;;23.85;13.07;;;;;;;7.45;72.94;102477.44;4975381;28;20524;-86
2022/04/27 06:29:19;;;;;;;20.75;13.05;;;;;;;7.57;73.21;102487.97;4978696;28;20030;-86
2022/04/27 06:31:45;;;;;;;21.73;11.45;;;;;;;7.70;71.71;102494.97;4971846;28;20037;-86
2022/04/27 06:34:11;;;;;;;18.15;11.48;;;;;;;7.83;72.17;102503.72;4991314;28;20031;-87
2022/04/27 06:36:38;;;;;;;18.65;12.23;;;;;;;7.90;70.92;102494.94;4991628;28;20030;-86
2022/04/27 06:39:07;;;;;;;19.30;10.63;;;;;;;8.08;70.78;102500.16;4993081;28;20048;-86
2022/04/27 06:41:32;;;;;;;16.23;11.25;;;;;;;8.22;70.06;102499.22;4969894;28;20034;-86
2022/04/27 06:43:58;;;;;;;16.48;11.02;;;;;;;8.39;69.26;102505.31;4970919;28;20038;-86
2022/04/27 06:46:23;;;;;;;17.63;10.88;;;;;;;8.49;69.37;102499.16;4969173;28;20073;-86
2022/04/27 06:48:48;;;;;;;16.67;10.23;;;;;;;8.71;69.54;102505.16;4975427;28;20121;-86
2022/04/27 06:51:15;;;;;;;16.60;10.27;;;;;;;8.83;67.88;102506.84;4972239;28;20027;-86
2022/04/27 06:53:40;;;;;;;19.67;10.57;;;;;;;8.93;67.35;102505.91;4988717;28;20028;-86
2022/04/27 06:56:05;;;;;;;15.90;10.68;;;;;;;9.09;67.15;102520.75;4970380;28;20397;-87
2022/04/27 06:58:31;;;;;;;16.05;11.25;;;;;;;9.16;66.44;102505.75;4990550;28;20038;-86
2022/04/27 07:00:57;;;;;;;16.85;10.40;;;;;;;9.35;65.76;102527.59;4972641;28;20397;-86
2022/04/27 07:03:23;;;;;;;16.10;10.07;;;;;;;9.31;66.19;102496.81;4975528;28;20168;-87
2022/04/27 07:05:48;;;;;;;19.27;11.10;;;;;;;9.58;65.50;102508.91;4976850;28;20549;-86
2022/04/27 07:08:14;;;;;;;18.27;10.25;;;;;;;9.71;64.73;102521.13;4978225;28;20117;-87
2022/04/27 07:10:39;;;;;;;16.75;10.15;;;;;;;9.75;63.46;102520.22;4974933;28;20061;-86
2022/04/27 07:13:05;;;;;;;17.92;10.30;;;;;;;9.76;65.12;102506.09;4972867;28;20054;-86
2022/04/27 07:15:31;;;;;;;16.20;9.73;;;;;;;9.80;64.85;102515.75;4971527;28;20026;-87
2022/04/27 07:17:56;;;;;;;14.00;8.70;;;;;;;9.92;64.03;102523.53;4989817;28;20515;-88
2022/04/27 07:20:22;;;;;;;17.35;9.65;;;;;;;9.94;62.28;102520.88;4994941;28;20481;-86
2022/04/27 07:22:47;;;;;;;17.08;9.00;;;;;;;10.09;63.19;102531.28;4989923;28;20076;-87
2022/04/27 07:25:14;;;;;;;15.68;9.80;;;;;;;10.16;62.87;102525.03;4978614;28;20030;-86
2022/04/27 07:27:39;;;;;;;15.73;9.07;;;;;;;10.24;62.11;102532.91;4973350;28;20050;-86
2022/04/27 07:30:05;;;;;;;13.85;8.60;;;;;;;10.30;61.64;102539.88;4974697;28;20060;-87
2022/04/27 07:32:31;;;;;;;12.63;7.78;;;;;;;10.49;59.89;102541.41;4990598;28;20030;-87
2022/04/27 07:34:56;;;;;;;11.60;7.05;;;;;;;10.61;56.98;102529.81;4972556;28;20464;-88
2022/04/27 07:37:21;;;;;;;8.63;7.10;;;;;;;10.85;58.90;102534.75;4975592;28;20265;-87
2022/04/27 07:39:46;;;;;;;13.93;8.88;;;;;;;11.26;59.08;102540.34;4991097;28;20029;-86
2022/04/27 07:42:12;;;;;;;11.02;7.25;;;;;;;11.68;56.38;102541.41;4975162;28;20117;-86
2022/04/27 07:44:37;;;;;;;12.32;7.30;;;;;;;12.15;55.09;102544.97;4976107;28;20025;-86
2022/04/27 07:47:03;;;;;;;9.32;6.88;;;;;;;12.46;53.91;102546.13;4970707;28;20445;-87
2022/04/27 07:49:28;;;;;;;11.07;6.82;;;;;;;12.76;53.33;102536.63;4986320;28;20037;-87
2022/04/27 07:51:54;;;;;;;9.73;6.35;;;;;;;13.42;52.76;102543.06;4987207;28;20060;-88
2022/04/27 07:54:20;;;;;;;9.50;5.65;;;;;;;13.71;47.22;102539.69;4973182;28;20045;-88
2022/04/27 07:56:45;;;;;;;9.70;5.68;;;;;;;13.78;48.13;102543.94;4972269;28;20046;-87
2022/04/27 07:59:10;;;;;;;7.80;5.45;;;;;;;14.14;46.48;102549.16;4989656;28;20069;-88
2022/04/27 08:01:36;;;;;;;7.38;5.93;;;;;;;14.40;47.13;102542.22;4987463;28;20042;-88
2022/04/27 08:04:01;;;;;;;8.77;5.68;;;;;;;14.89;45.71;102551.47;4991394;28;20031;-88
2022/04/27 08:06:26;;;;;;;7.30;4.57;;;;;;;15.34;44.67;102553.56;4990416;28;20113;-88
2022/04/27 08:08:52;;;;;;;4.80;3.83;;;;;;;15.70;41.60;102551.50;4984523;28;20030;-87
2022/04/27 08:11:17;;;;;;;7.10;4.95;;;;;;;15.48;41.32;102562.88;4972358;28;20038;-88
2022/04/27 08:13:43;;;;;;;6.97;4.88;;;;;;;15.55;41.41;102566.19;4980204;28;20026;-88
2022/04/27 08:16:10;;;;;;;7.82;4.18;;;;;;;15.99;39.25;102558.47;4968730;28;20034;-88
2022/04/27 08:18:36;;;;;;;4.57;3.83;;;;;;;16.35;37.86;102552.75;4971672;28;20044;-88
2022/04/27 08:21:14;;;;;;;6.68;3.80;;;;;;;16.73;38.23;102565.56;4975860;28;20493;-88
2022/04/27 08:23:40;;;;;;;4.85;3.75;;;;;;;17.16;37.33;102557.66;4971399;28;20109;-88
2022/04/27 08:26:07;;;;;;;11.60;5.38;;;;;;;17.32;36.16;102567.66;4990990;28;20100;-88
2022/04/27 08:28:34;;;;;;;7.28;4.43;;;;;;;17.61;35.90;102562.91;4972437;28;20092;-88
2022/04/27 08:30:59;;;;;;;8.82;4.72;;;;;;;17.98;35.91;102569.38;4970816;28;20026;-87
2022/04/27 08:33:25;;;;;;;5.40;4.35;;;;;;;18.24;34.59;102560.22;4987938;28;20033;-87
2022/04/27 08:35:51;;;;;;;9.02;5.15;;;;;;;18.55;35.01;102543.59;4992710;28;20038;-88
2022/04/27 08:38:16;;;;;;;4.97;4.28;;;;;;;19.10;34.22;102560.63;4995804;28;20018;-88
2022/04/27 08:40:44;;;;;;;7.85;4.38;;;;;;;19.61;33.51;102568.91;4992169;28;20057;-88
2022/04/27 08:43:10;;;;;;;6.40;4.38;;;;;;;20.02;32.83;102576.63;4974362;28;20481;-88
2022/04/27 08:45:37;;;;;;;6.03;3.67;;;;;;;20.36;31.37;102575.72;4968776;28;20570;-88
2022/04/27 08:48:03;;;;;;;5.45;3.80;;;;;;;20.47;31.74;102576.06;4984631;28;20063;-88
2022/04/27 08:50:29;;;;;;;6.78;4.50;;;;;;;20.69;30.01;102583.78;4973863;28;20250;-88
2022/04/27 08:52:55;;;;;;;8.85;4.28;;;;;;;20.94;29.08;102582.41;4983500;28;20816;-89
2022/04/27 08:55:22;;;;;;;6.78;4.60;;;;;;;21.29;30.37;102588.50;4983359;28;20042;-88
2022/04/27 08:57:50;;;;;;;5.97;4.57;;;;;;;21.67;27.60;102580.91;4985161;28;20046;-88
2022/04/27 09:00:19;;;;;;;5.97;4.40;;;;;;;21.80;29.23;102578.34;4981715;28;20397;-88
2022/04/27 09:02:45;;;;;;;5.38;4.30;;;;;;;22.18;26.40;102580.56;4985181;28;20030;-88
2022/04/27 09:05:19;;;;;;;6.57;4.50;;;;;;;22.60;29.10;102590.50;4969535;28;20034;-88
2022/04/27 09:07:52;;;;;;;6.88;4.55;;;;;;;22.81;26.97;102585.59;4985723;28;20062;-87
2022/04/27 09:10:25;;;;;;;5.80;4.88;;;;;;;23.01;28.72;102584.31;4968736;28;20105;-88
2022/04/27 09:12:50;;;;;;;6.30;4.68;;;;;;;23.25;25.46;102580.00;4987820;28;20104;-88
2022/04/27 09:15:19;;;;;;;4.95;4.28;;;;;;;23.41;27.04;102583.44;4991723;28;20129;-88
2022/04/27 09:23:29;;;;;;;6.47;4.55;;;;;;;24.16;26.65;102578.31;4993027;28;20132;-87
2022/04/27 09:25:57;;;;;;;7.18;5.20;;;;;;;24.13;25.30;102566.84;4968731;28;20490;-89
2022/04/27 09:28:25;;;;;;;8.38;5.10;;;;;;;24.13;23.54;102580.38;4970934;28;20018;-88
2022/04/27 09:30:51;;;;;;;6.45;4.85;;;;;;;24.09;24.02;102579.69;4978740;28;20061;-88
2022/04/27 09:33:33;;;;;;;6.40;5.03;;;;;;;24.24;25.62;102579.59;4987933;28;20117;-88
2022/04/27 09:35:58;;;;;;;;;;;;;;;23.30;26.94;102579.69;4997081;28;20790;-88
2022/04/27 09:38:24;;;;;;;6.97;4.80;;;;;;;21.29;27.04;102580.41;4986087;28;19917;-89
2022/04/27 09:40:54;;;;;;;8.07;5.05;;;;;;;21.72;28.67;102581.47;4988257;28;20049;-88
2022/04/27 09:43:44;;;;;;;9.73;5.45;;;;;;;22.10;28.40;102583.69;4991200;28;20405;-87
2022/04/27 09:46:22;;;;;;;7.85;4.97;;;;;;;22.05;26.70;102592.06;4987558;28;20042;-90
2022/04/27 09:49:14;;;;;;;8.75;4.95;;;;;;;22.08;28.11;102578.41;4983418;28;20046;-88
2022/04/27 09:51:53;;;;;;;8.38;5.35;;;;;;;21.99;27.56;102583.50;4969498;28;20049;-89
2022/04/27 09:54:19;;;;;;;8.35;6.05;;;;;;;21.91;25.56;102581.25;4986805;28;20100;-88
2022/04/27 09:56:54;;;;;;;7.32;5.75;;;;;;;22.02;26.74;102581.47;4985056;28;20062;-87
2022/04/27 09:59:21;;;;;;;10.43;5.47;;;;;;;21.41;26.32;102573.50;4983741;28;20051;-88
2022/04/27 10:01:49;;;;;;;8.95;5.68;;;;;;;21.70;27.17;102585.25;4968032;28;20061;-89
2022/04/27 10:04:18;;;;;;;7.22;5.65;;;;;;;22.12;28.80;102589.91;4969199;28;20031;-89
2022/04/27 10:06:45;;;;;;;7.78;5.25;;;;;;;22.46;27.12;102572.50;4970308;28;20059;-89
2022/04/27 10:09:11;;;;;;;8.77;5.38;;;;;;;22.58;26.24;102590.59;4968792;28;20042;-89
2022/04/27 10:11:36;;;;;;;6.47;5.40;;;;;;;22.32;25.43;102592.22;4967810;28;20060;-89
2022/04/27 10:14:02;;;;;;;7.60;5.60;;;;;;;22.05;26.38;102580.41;4972718;28;20037;-89
2022/04/27 10:16:28;;;;;;;9.60;6.60;;;;;;;22.12;26.48;102584.50;4971550;28;20045;-91
2022/04/27 10:18:53;;;;;;;9.82;6.88;;;;;;;22.12;25.72;102580.00;4968722;28;20069;-89
2022/04/27 10:22:01;;;;;;;8.32;6.78;;;;;;;21.96;27.09;102572.88;4971359;28;20035;-90
2022/04/27 10:24:41;;;;;;;6.63;5.70;;;;;;;22.16;27.89;102577.97;4983594;28;20086;-89
2022/04/27 10:27:14;;;;;;;10.98;6.30;;;;;;;22.15;27.27;102569.03;4968052;28;20541;-89
2022/04/27 10:29:39;;;;;;;8.30;6.30;;;;;;;22.14;25.99;102552.94;4978021;28;20048;-90
2022/04/27 10:32:05;;;;;;;7.85;6.57;;;;;;;22.50;26.52;102562.41;4963965;28;20031;-90
2022/04/27 10:34:32;;;;;;;12.15;6.47;;;;;;;22.66;26.15;102564.03;4973962;28;20517;-90
2022/04/27 10:36:58;;;;;;;8.13;6.80;;;;;;;22.18;26.34;102562.56;4973284;28;20161;-89
2022/04/27 10:39:25;;;;;;;6.95;6.10;;;;;;;21.52;27.28;102557.59;4964362;28;20413;-91
2022/04/27 10:41:58;;;;;;;8.32;6.97;;;;;;;21.28;29.15;102570.63;4968953;28;20105;-90
2022/04/27 10:44:48;;;;;;;10.13;7.25;;;;;;;20.88;29.04;102571.06;4969685;28;20034;-90
2022/04/27 10:47:15;;;;;;;9.65;7.00;;;;;;;21.02;29.31;102570.28;4967630;28;20045;-90
2022/04/27 10:49:40;;;;;;;9.90;7.25;;;;;;;21.52;27.26;102553.06;4970153;28;20399;-89
2022/04/27 10:52:10;;;;;;;9.88;6.82;;;;;;;22.10;27.85;102546.88;4968326;28;20106;-90
2022/04/27 10:54:37;;;;;;;9.20;6.65;;;;;;;22.45;28.38;102549.22;4966610;28;20026;-90
2022/04/27 10:57:14;;;;;;;9.77;7.25;;;;;;;22.83;27.04;102559.38;4983396;28;20058;-89
2022/04/27 10:59:47;;;;;;;10.23;7.03;;;;;;;23.05;26.92;102537.28;4990059;28;20038;-90
2022/04/27 11:02:35;;;;;;;9.45;7.15;;;;;;;22.95;26.79;102560.44;4963642;28;20557;-91
2022/04/27 11:05:04;;;;;;;9.82;7.00;;;;;;;22.93;25.86;102557.84;4994517;28;20034;-90
2022/04/27 11:07:43;;;;;;;7.70;6.55;;;;;;;23.05;26.34;102557.03;4985206;28;21858;-89
2022/04/27 11:10:20;;;;;;;10.27;6.68;;;;;;;23.19;25.81;102545.34;4987758;28;20390;-89
2022/04/27 11:12:51;;;;;;;27.73;8.35;;;;;;;23.01;25.82;102543.84;4974211;28;20059;-90
2022/04/27 11:15:20;;;;;;;21.73;7.80;;;;;;;22.56;26.00;102556.59;4972166;28;20030;-90
2022/04/27 11:17:51;;;;;;;9.25;6.93;;;;;;;22.26;27.01;102560.28;4991342;28;20144;-89
2022/04/27 11:20:23;;;;;;;14.05;7.60;;;;;;;21.90;27.57;102557.97;4972376;28;20029;-88
2022/04/27 11:22:48;;;;;;;15.98;7.32;;;;;;;22.00;26.87;102547.50;4974149;28;20034;-88
2022/04/27 11:25:32;;;;;;;29.35;9.15;;;;;;;22.14;27.31;102545.72;4975893;28;20030;-89
2022/04/27 11:28:02;;;;;;;12.45;7.15;;;;;;;22.40;25.65;102564.81;4967953;28;20034;-88
2022/04/27 11:30:30;;;;;;;9.00;7.45;;;;;;;22.54;25.20;102550.47;4989291;28;20069;-88
2022/04/27 11:32:55;;;;;;;9.73;7.55;;;;;;;21.86;25.35;102538.44;4985141;28;20100;-90
2022/04/27 11:35:25;;;;;;;12.93;7.30;;;;;;;21.87;27.86;102555.50;4973197;28;20397;-89
2022/04/27 11:37:55;;;;;;;10.65;7.10;;;;;;;22.46;26.22;102553.63;4970769;28;20101;-89
2022/04/27 11:40:28;;;;;;;11.52;7.07;;;;;;;23.22;26.32;102555.03;4971421;28;20038;-89